KAXS/AXS METAR and TAF weather

Enter ICAO airport designator
Station Type Date Time Source
KAXS METAR 2019/05/27 09:15 UTC NOAA

KAXS 270915Z AUTO 14010KT 10SM SCT038 SCT050 22/19 A2986 RMK AO2 T02150185


Station Type Date Time Source
KAXS Decoded METAR 2019/05/27 09:15 UTC NOAA

Altus, Altus/Quartz Mountain Regional Airport, OK, United States (KAXS) 34-41-55N 099-20-17W
May 27, 2019 - 05:15 AM EDT / 2019.05.27 0915 UTC
Wind: from the SE (140 degrees) at 12 MPH (10 KT):0
Visibility: 10 mile(s):0
Sky conditions: partly cloudy
Temperature: 70.7 F (21.5 C)
Dew Point: 65.3 F (18.5 C)
Relative Humidity: 83%
Pressure (altimeter): 29.86 in. Hg (1011 hPa)
ob: KAXS 270915Z AUTO 14010KT 10SM SCT038 SCT050 22/19 A2986 RMK AO2 T02150185
cycle: 9

Station Type Date Time Source
KAXS TAF UTC NOAA

Error!

Example: see airport list